Satellite Actuals Today Synoptics Week ahead

Actual weather at the Black Mountains Gliding Club.

METARs

Birmingham

2018/11/12 23:50
EGBB 122350Z AUTO 20009KT 180V240 9999 NCD 08/06 Q1009

Brize Norton

2018/11/12 23:50
EGVN 122350Z 25008KT 9999 FEW025 08/06 Q1011 BLU NOSIG

Cardiff

2018/11/12 23:50
EGFF 122350Z AUTO 25014KT 220V280 1400 +RA BKN020 BKN035 10/08 Q1011

Select station

2018/11/12 23:50
EGCC 122350Z AUTO 19008KT 9999 FEW047 08/05 Q1006 TEMPO SHRA

Decode?  - Copy the METAR (from the station code) and paste it into the METARs/TAFs box here.

Webcams
Current Long Mynd West

Airfield webcams

Talgarth Airfield looking EAST
Talgarth Airfield looking NORTH
Talgarth Airfield looking WEST
Bidford
Cambridge
Dunstable
Lasham
Long Mynd
Usk Airfield (South Wales GC)
Nympsfield airfield
Aston Down
Staverton- looking NE.
Oxford
Shenington Airfield, near Banbury - from the clubhouse, looking north
Parham airfield Sussex [Southdown GC]
Lasham airfield Hampshire

General webcams

Abergavenny looking west towards the Blorenge
Abersoch - Llyn peninsula - 2
Alvechurch, North Worcs.
Brecon Beacons National Park Visitor Centre webcam
Llangorse webcam
Newbury
Newtown, Powys
Wye Valley webcam - different views can be selected
Snowdon